createdAt,value
2023-05-11T00:02:15.082Z,7.10
2023-05-11T00:04:42.090Z,8.55
2023-05-11T00:07:08.909Z,6.95
2023-05-11T00:09:35.887Z,6.65
2023-05-11T00:12:02.901Z,6.38
2023-05-11T00:14:29.986Z,8.32
2023-05-11T00:16:56.785Z,7.75
2023-05-11T00:19:23.576Z,8.27
2023-05-11T00:21:50.372Z,10.98
2023-05-11T00:24:17.278Z,8.23
2023-05-11T00:26:44.157Z,7.05
2023-05-11T00:29:10.985Z,8.52
2023-05-11T00:31:37.826Z,7.05
2023-05-11T00:34:04.665Z,8.32
2023-05-11T00:36:31.550Z,9.48
2023-05-11T00:38:58.399Z,8.85
2023-05-11T00:41:25.523Z,9.13
2023-05-11T00:43:52.320Z,9.18
2023-05-11T00:46:19.119Z,11.90
2023-05-11T00:48:46.123Z,14.02
2023-05-11T00:51:13.575Z,9.90
2023-05-11T00:53:40.853Z,8.30
2023-05-11T00:56:08.958Z,9.75
2023-05-11T00:58:36.642Z,8.90
2023-05-11T01:01:04.004Z,9.38
2023-05-11T01:03:32.657Z,10.43
2023-05-11T01:06:17.298Z,11.63
2023-05-11T01:08:56.762Z,10.07
2023-05-11T01:11:28.253Z,10.73
2023-05-11T01:14:11.917Z,8.93
2023-05-11T01:19:15.805Z,11.02
2023-05-11T01:21:45.832Z,9.73
2023-05-11T01:24:45.371Z,9.50
2023-05-11T01:27:30.074Z,12.98
2023-05-11T01:30:26.022Z,9.15
2023-05-11T01:32:58.081Z,9.55
2023-05-11T01:35:27.595Z,10.13
2023-05-11T01:37:57.454Z,8.95
2023-05-11T01:40:29.100Z,10.35
2023-05-11T01:43:12.086Z,8.57
2023-05-11T01:45:50.546Z,9.32
2023-05-11T01:48:28.025Z,9.38
2023-05-11T01:50:59.281Z,8.95
2023-05-11T01:53:28.068Z,8.13
2023-05-11T01:55:58.331Z,7.95
2023-05-11T01:58:27.128Z,8.07
2023-05-11T02:00:55.210Z,8.32
2023-05-11T02:03:24.331Z,9.68
2023-05-11T02:05:52.738Z,6.90
2023-05-11T02:08:21.453Z,6.78
2023-05-11T02:10:50.416Z,8.10
2023-05-11T02:13:19.971Z,7.75
2023-05-11T02:15:50.871Z,8.23
2023-05-11T02:18:19.223Z,7.50
2023-05-11T02:20:48.130Z,8.30
2023-05-11T02:23:17.121Z,8.25
2023-05-11T02:25:45.073Z,11.75
2023-05-11T02:28:12.074Z,7.88
2023-05-11T02:30:46.889Z,8.38
2023-05-11T02:33:39.204Z,6.72
2023-05-11T02:36:08.166Z,10.88
2023-05-11T02:38:36.084Z,9.15
2023-05-11T02:41:07.259Z,11.27
2023-05-11T02:43:40.646Z,8.20
2023-05-11T02:46:13.433Z,9.60
2023-05-11T02:48:45.485Z,7.57
2023-05-11T02:51:15.619Z,8.93
2023-05-11T02:53:45.379Z,10.00
2023-05-11T02:56:12.735Z,8.57
2023-05-11T02:58:42.993Z,10.25
2023-05-11T03:01:10.411Z,8.23
2023-05-11T03:03:37.858Z,8.63
2023-05-11T03:06:05.850Z,8.60
2023-05-11T03:08:33.094Z,8.45
2023-05-11T03:11:03.417Z,10.70
2023-05-11T03:13:31.823Z,8.68
2023-05-11T03:16:02.479Z,8.10
2023-05-11T03:18:31.181Z,9.70
2023-05-11T03:21:00.576Z,10.73
2023-05-11T03:23:30.036Z,7.25
2023-05-11T03:25:58.638Z,7.47
2023-05-11T03:28:26.711Z,7.93
2023-05-11T03:30:54.181Z,7.55
2023-05-11T03:33:21.084Z,7.65
2023-05-11T03:35:51.047Z,9.27
2023-05-11T03:38:22.281Z,6.93
2023-05-11T03:40:51.655Z,8.80
2023-05-11T03:43:19.230Z,7.43
2023-05-11T03:45:48.048Z,8.52
2023-05-11T03:48:16.598Z,8.13
2023-05-11T03:50:44.166Z,9.75
2023-05-11T03:53:12.161Z,11.02
2023-05-11T03:55:39.151Z,8.30
2023-05-11T03:58:09.683Z,8.85
2023-05-11T04:00:41.054Z,8.90
2023-05-11T04:03:11.588Z,7.60
2023-05-11T04:05:38.509Z,7.32
2023-05-11T04:08:06.044Z,9.43
2023-05-11T04:10:33.261Z,7.53
2023-05-11T04:13:00.069Z,9.10
2023-05-11T04:15:26.902Z,11.05
2023-05-11T04:17:53.782Z,11.95
2023-05-11T04:20:20.843Z,9.27
2023-05-11T04:22:47.834Z,8.63
2023-05-11T04:25:14.790Z,7.68
2023-05-11T04:27:41.565Z,10.40
2023-05-11T04:30:08.986Z,8.20
2023-05-11T04:32:35.947Z,7.95
2023-05-11T04:35:02.889Z,12.00
2023-05-11T04:37:30.099Z,9.82
2023-05-11T04:39:57.400Z,8.38
2023-05-11T04:42:24.344Z,8.95
2023-05-11T04:44:54.590Z,9.38
2023-05-11T04:47:21.624Z,10.35
2023-05-11T04:49:48.485Z,8.00
2023-05-11T04:52:15.365Z,6.68
2023-05-11T04:54:42.273Z,7.53
2023-05-11T04:57:09.111Z,8.77
2023-05-11T04:59:36.013Z,6.57
2023-05-11T05:02:02.856Z,8.77
2023-05-11T05:04:29.833Z,10.60
2023-05-11T05:06:56.738Z,7.35
2023-05-11T05:09:23.549Z,8.65
2023-05-11T05:11:50.327Z,6.70
2023-05-11T05:14:17.093Z,7.13
2023-05-11T05:16:43.928Z,8.40
2023-05-11T05:19:11.073Z,8.55
2023-05-11T05:21:38.025Z,10.13
2023-05-11T05:24:06.170Z,7.97
2023-05-11T05:26:33.209Z,8.63
2023-05-11T05:28:59.996Z,8.45
2023-05-11T05:31:26.866Z,9.35
2023-05-11T05:33:53.702Z,8.82
2023-05-11T05:36:20.462Z,9.20
2023-05-11T05:38:47.250Z,9.93
2023-05-11T05:41:14.039Z,9.23
2023-05-11T05:43:40.837Z,8.07
2023-05-11T05:46:07.817Z,7.45
2023-05-11T05:48:34.722Z,9.50
2023-05-11T05:51:01.798Z,8.93
2023-05-11T05:53:29.148Z,8.63
2023-05-11T05:55:56.015Z,8.57
2023-05-11T05:58:22.820Z,8.73
2023-05-11T06:00:49.701Z,8.45
2023-05-11T06:03:16.719Z,11.00
2023-05-11T06:05:43.575Z,8.77
2023-05-11T06:08:11.323Z,11.10
2023-05-11T06:10:38.756Z,9.18
2023-05-11T06:13:05.979Z,9.93
2023-05-11T06:15:32.740Z,8.93
2023-05-11T06:17:59.577Z,9.88
2023-05-11T06:20:26.705Z,9.98
2023-05-11T06:22:53.611Z,8.73
2023-05-11T06:25:20.413Z,9.20
2023-05-11T06:27:47.234Z,8.35
2023-05-11T06:30:14.269Z,10.50
2023-05-11T06:32:41.065Z,9.82
2023-05-11T06:35:08.185Z,11.82
2023-05-11T06:37:35.534Z,10.30
2023-05-11T06:40:02.471Z,9.57
2023-05-11T06:42:29.924Z,8.57
2023-05-11T06:44:56.846Z,8.38
2023-05-11T06:47:23.754Z,9.82
2023-05-11T06:49:50.625Z,7.68
2023-05-11T06:52:17.400Z,9.05
2023-05-11T06:54:44.254Z,7.88
2023-05-11T06:57:12.682Z,8.68
2023-05-11T06:59:40.642Z,8.65
2023-05-11T07:02:07.475Z,9.30
2023-05-11T07:04:34.345Z,9.13
2023-05-11T07:07:01.303Z,8.50
2023-05-11T07:09:28.447Z,10.35
2023-05-11T07:11:56.140Z,8.23
2023-05-11T07:14:22.920Z,8.73
2023-05-11T07:16:52.839Z,11.60
2023-05-11T07:19:19.895Z,9.25
2023-05-11T07:21:46.873Z,10.23
2023-05-11T07:24:13.716Z,8.95
2023-05-11T07:26:40.501Z,7.65
2023-05-11T07:29:07.510Z,9.60
2023-05-11T07:31:35.630Z,10.15
2023-05-11T07:34:02.488Z,7.80
2023-05-11T07:36:30.003Z,6.60
2023-05-11T07:38:57.923Z,7.25
2023-05-11T07:41:26.823Z,8.93
2023-05-11T07:43:54.660Z,8.18
2023-05-11T07:46:21.502Z,8.23
2023-05-11T07:48:48.553Z,7.60
2023-05-11T07:51:15.375Z,8.98
2023-05-11T07:53:48.353Z,8.00
2023-05-11T07:56:15.161Z,7.57
2023-05-11T07:58:41.963Z,8.55
2023-05-11T08:01:09.009Z,7.72
2023-05-11T08:03:35.917Z,6.85
2023-05-11T08:06:03.456Z,7.70
2023-05-11T08:08:30.649Z,9.98
2023-05-11T08:10:57.471Z,7.20
2023-05-11T08:13:25.861Z,6.43
2023-05-11T08:15:52.789Z,6.35
2023-05-11T08:18:19.760Z,6.20
2023-05-11T08:20:46.616Z,6.45
2023-05-11T08:23:17.978Z,6.00
2023-05-11T08:25:51.379Z,7.22
2023-05-11T08:30:45.658Z,7.15
2023-05-11T08:33:32.122Z,5.88
2023-05-11T08:36:00.493Z,7.40
2023-05-11T08:38:27.294Z,7.18
2023-05-11T08:40:54.670Z,7.05
2023-05-11T08:43:24.125Z,6.03
2023-05-11T08:45:57.452Z,7.07
2023-05-11T08:48:24.481Z,7.88
2023-05-11T08:50:51.978Z,5.47
2023-05-11T08:53:18.845Z,5.72
2023-05-11T08:55:47.799Z,5.05
2023-05-11T08:58:19.407Z,5.32
2023-05-11T09:00:47.387Z,5.60
2023-05-11T09:03:15.424Z,5.47
2023-05-11T09:05:45.394Z,8.20
2023-05-11T09:08:14.141Z,5.70
2023-05-11T09:10:42.360Z,6.28
2023-05-11T09:13:09.457Z,6.05
2023-05-11T09:15:38.118Z,8.40
2023-05-11T09:18:05.558Z,6.88
2023-05-11T09:20:34.506Z,6.35
2023-05-11T09:23:01.762Z,6.03
2023-05-11T09:25:34.919Z,8.38
2023-05-11T09:28:01.916Z,5.78
2023-05-11T09:30:29.128Z,5.80
2023-05-11T09:33:01.000Z,5.60
2023-05-11T09:35:35.075Z,5.25
2023-05-11T09:38:10.589Z,7.20
2023-05-11T09:40:52.161Z,8.55
2023-05-11T09:43:26.464Z,5.40
2023-05-11T09:45:56.168Z,3.85
2023-05-11T09:48:27.382Z,4.65
2023-05-11T09:51:05.929Z,4.07
2023-05-11T09:53:43.781Z,3.55
2023-05-11T09:56:11.949Z,3.58
2023-05-11T09:58:53.971Z,3.72
2023-05-11T10:01:32.891Z,4.30
2023-05-11T10:04:21.477Z,3.08
2023-05-11T10:06:53.419Z,4.00
2023-05-11T10:09:25.369Z,2.83
2023-05-11T10:11:55.143Z,3.90
2023-05-11T10:14:24.643Z,3.75
2023-05-11T10:16:52.481Z,3.03
2023-05-11T10:19:19.645Z,3.78
2023-05-11T10:21:47.158Z,2.90
2023-05-11T10:24:14.376Z,4.95
2023-05-11T10:26:41.439Z,2.35
2023-05-11T10:29:09.768Z,3.40
2023-05-11T10:31:37.601Z,2.80
2023-05-11T10:34:04.947Z,3.40
2023-05-11T10:36:31.889Z,5.05
2023-05-11T10:38:59.060Z,6.75
2023-05-11T10:41:51.599Z,5.95
2023-05-11T10:44:49.477Z,3.90
2023-05-11T10:47:49.494Z,3.08
2023-05-11T10:50:31.121Z,4.63
2023-05-11T10:53:19.210Z,4.95
2023-05-11T10:56:06.224Z,3.78
2023-05-11T10:58:42.215Z,3.65
2023-05-11T11:01:41.974Z,3.63
2023-05-11T11:04:11.562Z,2.67
2023-05-11T11:06:43.634Z,3.78
2023-05-11T11:09:13.671Z,3.25
2023-05-11T11:11:46.000Z,3.13
2023-05-11T11:14:15.105Z,5.45
2023-05-11T11:17:02.331Z,5.55
2023-05-11T11:19:32.758Z,4.28
2023-05-11T11:22:01.343Z,3.20
2023-05-11T11:24:42.692Z,3.65
2023-05-11T11:27:10.062Z,3.97
2023-05-11T11:29:37.982Z,4.32
2023-05-11T11:32:20.109Z,3.10
2023-05-11T11:34:47.947Z,2.95
2023-05-11T11:37:16.618Z,2.47
2023-05-11T11:39:43.351Z,2.53
2023-05-11T11:42:15.353Z,2.67
2023-05-11T11:47:21.663Z,3.20
2023-05-11T11:49:51.074Z,4.13
2023-05-11T11:52:27.125Z,3.05
2023-05-11T11:55:01.391Z,3.38
2023-05-11T11:57:34.507Z,2.95
2023-05-11T12:00:07.080Z,2.72
2023-05-11T12:02:34.466Z,4.23
2023-05-11T12:05:02.203Z,2.40
2023-05-11T12:07:34.147Z,3.25
2023-05-11T12:10:04.588Z,3.72
2023-05-11T12:12:32.282Z,3.20
2023-05-11T12:15:00.033Z,3.58
2023-05-11T12:17:29.747Z,5.70
2023-05-11T12:20:12.616Z,5.00
2023-05-11T12:22:39.872Z,4.07
2023-05-11T12:25:07.888Z,3.33
2023-05-11T12:27:34.726Z,3.38
2023-05-11T12:30:02.084Z,7.32
2023-05-11T12:32:30.988Z,4.90
2023-05-11T12:35:02.551Z,4.43
2023-05-11T12:37:31.170Z,4.13
2023-05-11T12:39:59.104Z,5.05
2023-05-11T12:42:26.716Z,5.90
2023-05-11T12:44:54.432Z,5.60
2023-05-11T12:47:21.321Z,6.53
2023-05-11T12:49:48.239Z,6.68
2023-05-11T12:52:15.150Z,6.47
2023-05-11T12:54:51.360Z,6.38
2023-05-11T12:57:25.421Z,6.95
2023-05-11T13:00:08.023Z,6.75
2023-05-11T13:02:35.198Z,6.05
2023-05-11T13:05:12.204Z,7.07
2023-05-11T13:07:39.257Z,6.55
2023-05-11T13:10:06.609Z,6.63
2023-05-11T13:12:34.451Z,7.03
2023-05-11T13:15:12.510Z,5.38
2023-05-11T13:17:42.199Z,7.13
2023-05-11T13:20:18.606Z,7.20
2023-05-11T13:22:46.492Z,6.30
2023-05-11T13:25:23.228Z,6.40
2023-05-11T13:27:49.977Z,7.10
2023-05-11T13:30:16.886Z,6.95
2023-05-11T13:32:43.839Z,8.40
2023-05-11T13:35:11.137Z,9.13
2023-05-11T13:37:38.288Z,7.55
2023-05-11T13:40:08.711Z,8.65
2023-05-11T13:42:35.594Z,8.80
2023-05-11T13:45:02.469Z,8.73
2023-05-11T13:47:30.153Z,7.63
2023-05-11T13:49:57.339Z,8.65
2023-05-11T13:52:24.134Z,8.40
2023-05-11T13:54:51.350Z,7.82
2023-05-11T13:57:18.273Z,9.23
2023-05-11T13:59:45.064Z,12.98
2023-05-11T14:02:12.156Z,8.38
2023-05-11T14:04:40.363Z,8.82
2023-05-11T14:07:07.777Z,8.85
2023-05-11T14:09:34.808Z,8.82
2023-05-11T14:12:01.604Z,8.68
2023-05-11T14:14:28.924Z,6.43
2023-05-11T14:16:56.766Z,6.90
2023-05-11T14:19:23.691Z,7.68
2023-05-11T14:21:50.734Z,7.20
2023-05-11T14:24:17.551Z,7.63
2023-05-11T14:26:44.435Z,7.60
2023-05-11T14:29:11.399Z,7.75
2023-05-11T14:31:38.820Z,7.22
2023-05-11T14:34:06.143Z,7.07
2023-05-11T14:36:33.537Z,7.45
2023-05-11T14:39:00.674Z,8.00
2023-05-11T14:41:27.524Z,8.35
2023-05-11T14:43:54.432Z,7.75
2023-05-11T14:46:21.873Z,7.03
2023-05-11T14:48:49.593Z,6.85
2023-05-11T14:51:16.435Z,6.03
2023-05-11T14:53:43.180Z,6.05
2023-05-11T14:56:10.183Z,6.22
2023-05-11T14:58:37.022Z,8.32
2023-05-11T15:01:04.935Z,6.82
2023-05-11T15:03:31.783Z,6.78
2023-05-11T15:05:58.705Z,9.60
2023-05-11T15:08:30.275Z,7.10
2023-05-11T15:10:57.662Z,8.85
2023-05-11T15:13:24.634Z,7.28
2023-05-11T15:15:51.863Z,7.22
2023-05-11T15:18:19.045Z,6.85
2023-05-11T15:20:47.198Z,7.22
2023-05-11T15:23:17.755Z,8.23
2023-05-11T15:25:45.337Z,8.00
2023-05-11T15:28:12.525Z,8.27
2023-05-11T15:30:41.745Z,7.97
2023-05-11T15:33:10.095Z,8.80
2023-05-11T15:35:37.797Z,7.10
2023-05-11T15:38:04.919Z,7.20
2023-05-11T15:40:32.494Z,7.93
2023-05-11T15:42:59.850Z,12.50
2023-05-11T15:45:27.383Z,9.65
2023-05-11T15:47:54.577Z,8.63
2023-05-11T15:50:22.230Z,7.57
2023-05-11T15:52:49.456Z,9.32
2023-05-11T15:55:16.561Z,8.60
2023-05-11T15:57:43.640Z,10.27
2023-05-11T16:00:11.568Z,8.57
2023-05-11T16:02:38.924Z,9.02
2023-05-11T16:05:06.416Z,10.73
2023-05-11T16:07:33.563Z,7.85
2023-05-11T16:10:00.859Z,9.75
2023-05-11T16:12:27.902Z,7.30
2023-05-11T16:14:54.981Z,8.18
2023-05-11T16:17:22.142Z,8.43
2023-05-11T16:19:49.084Z,8.35
2023-05-11T16:22:16.038Z,8.90
2023-05-11T16:24:42.994Z,7.22
2023-05-11T16:27:10.017Z,8.82
2023-05-11T16:29:36.997Z,8.30
2023-05-11T16:32:04.114Z,8.23
2023-05-11T16:34:31.157Z,10.75
2023-05-11T16:36:59.150Z,11.90
2023-05-11T16:39:26.763Z,9.70
2023-05-11T16:41:53.579Z,9.60
2023-05-11T16:44:20.419Z,12.43
2023-05-11T16:46:47.937Z,8.80
2023-05-11T16:49:14.832Z,7.88
2023-05-11T16:51:42.534Z,10.35
2023-05-11T16:54:10.393Z,8.60
2023-05-11T16:56:37.377Z,9.23
2023-05-11T16:59:04.405Z,8.82
2023-05-11T17:01:31.955Z,11.38
2023-05-11T17:03:58.924Z,11.75
2023-05-11T17:06:27.421Z,9.57
2023-05-11T17:08:54.716Z,9.85
2023-05-11T17:11:21.662Z,9.18
2023-05-11T17:13:48.481Z,11.10
2023-05-11T17:16:15.475Z,11.13
2023-05-11T17:18:42.626Z,9.60
2023-05-11T17:21:09.708Z,9.85
2023-05-11T17:23:36.599Z,13.00
2023-05-11T17:26:10.222Z,9.00
2023-05-11T17:28:40.367Z,9.80
2023-05-11T17:31:09.358Z,10.57
2023-05-11T17:33:36.389Z,10.82
2023-05-11T17:36:04.117Z,9.45
2023-05-11T17:38:31.170Z,11.75
2023-05-11T17:41:04.756Z,11.98
2023-05-11T17:43:32.764Z,12.63
2023-05-11T17:46:00.508Z,15.98
2023-05-11T17:48:27.399Z,12.13
2023-05-11T17:50:54.166Z,12.75
2023-05-11T17:53:20.931Z,11.20
2023-05-11T17:55:47.720Z,11.20
2023-05-11T17:58:14.528Z,9.70
2023-05-11T18:00:41.372Z,11.55
2023-05-11T18:03:08.270Z,12.32
2023-05-11T18:05:47.457Z,10.77
2023-05-11T18:08:15.717Z,11.30
2023-05-11T18:10:42.894Z,12.85
2023-05-11T18:13:09.992Z,11.02
2023-05-11T18:15:37.758Z,10.82
2023-05-11T18:18:05.266Z,12.82
2023-05-11T18:20:32.165Z,11.35
2023-05-11T18:22:59.089Z,12.07
2023-05-11T18:25:27.921Z,10.65
2023-05-11T18:27:55.054Z,10.25
2023-05-11T18:30:21.999Z,12.05
2023-05-11T18:32:49.006Z,10.75
2023-05-11T18:35:16.741Z,10.30
2023-05-11T18:37:43.540Z,10.38
2023-05-11T18:40:10.749Z,13.75
2023-05-11T18:42:37.573Z,12.82
2023-05-11T18:45:04.734Z,11.23
2023-05-11T18:47:34.923Z,13.77
2023-05-11T18:50:02.886Z,11.30
2023-05-11T18:52:30.411Z,12.15
2023-05-11T18:54:58.220Z,11.38
2023-05-11T18:57:25.024Z,12.63
2023-05-11T18:59:52.406Z,14.93
2023-05-11T19:02:19.262Z,13.57
2023-05-11T19:04:46.242Z,12.25
2023-05-11T19:07:13.032Z,12.93
2023-05-11T19:09:39.864Z,12.23
2023-05-11T19:12:07.044Z,13.10
2023-05-11T19:14:34.805Z,13.25
2023-05-11T19:17:02.326Z,17.20
2023-05-11T19:19:29.430Z,13.90
2023-05-11T19:21:56.286Z,15.30
2023-05-11T19:24:23.123Z,14.85
2023-05-11T19:27:02.588Z,15.75
2023-05-11T19:29:33.219Z,16.52
2023-05-11T19:32:00.043Z,17.15
2023-05-11T19:34:26.953Z,14.90
2023-05-11T19:36:53.727Z,16.85
2023-05-11T19:39:20.524Z,15.43
2023-05-11T19:41:47.676Z,15.38
2023-05-11T19:44:14.465Z,15.50
2023-05-11T19:46:46.305Z,17.77
2023-05-11T19:49:15.268Z,15.15
2023-05-11T19:51:42.616Z,15.93
2023-05-11T19:54:10.760Z,14.70
2023-05-11T19:56:37.563Z,14.90
2023-05-11T19:59:04.776Z,15.52
2023-05-11T20:01:31.849Z,17.08
2023-05-11T20:03:59.269Z,15.18
2023-05-11T20:06:26.282Z,17.45
2023-05-11T20:08:54.154Z,14.95
2023-05-11T20:11:22.111Z,16.17
2023-05-11T20:13:49.331Z,14.63
2023-05-11T20:16:16.351Z,15.65
2023-05-11T20:18:43.615Z,16.88
2023-05-11T20:21:11.212Z,14.48
2023-05-11T20:23:39.312Z,15.23
2023-05-11T20:26:06.866Z,16.05
2023-05-11T20:28:33.715Z,15.18
2023-05-11T20:31:00.540Z,11.93
2023-05-11T20:35:58.263Z,14.20
2023-05-11T20:38:25.474Z,14.63
2023-05-11T20:40:58.406Z,13.32
2023-05-11T20:43:28.258Z,15.07
2023-05-11T20:45:55.411Z,18.13
2023-05-11T20:48:32.395Z,17.40
2023-05-11T20:51:05.745Z,14.48
2023-05-11T20:53:32.600Z,16.60
2023-05-11T20:56:01.082Z,15.00
2023-05-11T20:58:29.906Z,13.45
2023-05-11T21:00:56.792Z,15.25
2023-05-11T21:03:25.650Z,15.88
2023-05-11T21:05:53.368Z,16.80
2023-05-11T21:08:20.283Z,14.38
2023-05-11T21:10:47.092Z,15.95
2023-05-11T21:13:13.940Z,13.32
2023-05-11T21:15:41.249Z,13.50
2023-05-11T21:18:08.167Z,15.60
2023-05-11T21:20:35.732Z,13.85
2023-05-11T21:23:02.681Z,14.07
2023-05-11T21:25:29.701Z,16.00
2023-05-11T21:27:56.552Z,13.38
2023-05-11T21:30:23.359Z,14.57
2023-05-11T21:32:50.782Z,12.95
2023-05-11T21:35:18.072Z,15.60
2023-05-11T21:37:49.216Z,17.02
2023-05-11T21:40:18.052Z,13.98
2023-05-11T21:42:45.154Z,16.17
2023-05-11T21:45:13.113Z,15.05
2023-05-11T21:47:39.915Z,17.75
2023-05-11T21:50:08.604Z,13.60
2023-05-11T21:52:36.377Z,14.75
2023-05-11T21:55:03.325Z,14.73
2023-05-11T21:57:30.275Z,14.75
2023-05-11T21:59:57.118Z,12.73
2023-05-11T22:02:23.919Z,14.30
2023-05-11T22:04:50.714Z,14.50
2023-05-11T22:07:17.607Z,13.88
2023-05-11T22:09:44.505Z,18.10
2023-05-11T22:12:11.887Z,15.15
2023-05-11T22:14:38.774Z,14.13
2023-05-11T22:17:06.084Z,13.43
2023-05-11T22:19:33.473Z,15.02
2023-05-11T22:22:00.375Z,14.57
2023-05-11T22:24:27.282Z,13.60
2023-05-11T22:26:54.658Z,14.70
2023-05-11T22:29:22.079Z,14.52
2023-05-11T22:31:51.991Z,15.55
2023-05-11T22:34:21.297Z,14.73
2023-05-11T22:36:48.157Z,14.70
2023-05-11T22:39:14.996Z,17.60
2023-05-11T22:41:41.856Z,16.45
2023-05-11T22:44:09.279Z,13.02
2023-05-11T22:46:36.461Z,14.73
2023-05-11T22:49:03.251Z,13.10
2023-05-11T22:51:30.082Z,13.18
2023-05-11T22:53:56.870Z,12.10
2023-05-11T22:56:23.636Z,14.93
2023-05-11T22:58:51.957Z,13.52
2023-05-11T23:01:18.926Z,13.00
2023-05-11T23:03:45.748Z,13.82
2023-05-11T23:06:12.539Z,12.98
2023-05-11T23:08:39.373Z,15.30
2023-05-11T23:11:07.491Z,13.23
2023-05-11T23:13:34.918Z,12.48
2023-05-11T23:16:03.836Z,12.88
2023-05-11T23:18:31.352Z,13.15
2023-05-11T23:20:59.390Z,13.70
2023-05-11T23:23:26.764Z,15.45
2023-05-11T23:25:53.795Z,14.45
2023-05-11T23:28:20.837Z,12.52
2023-05-11T23:30:47.677Z,11.68
2023-05-11T23:33:14.760Z,11.93
2023-05-11T23:35:41.867Z,12.57
2023-05-11T23:38:08.714Z,13.30
2023-05-11T23:40:36.228Z,12.48
2023-05-11T23:43:03.147Z,12.27
2023-05-11T23:45:29.956Z,15.60
2023-05-11T23:47:57.007Z,10.70
2023-05-11T23:50:23.805Z,12.73
2023-05-11T23:52:50.737Z,11.52
2023-05-11T23:55:18.049Z,13.02
2023-05-11T23:57:45.023Z,11.90
